Time;durP1;ratioP1;P1;durP2;ratioP2;P2;SDS_P1;SDS_P2;PMS_P1;PMS_P2;Temp;Humidity;BMP_temperature;BMP_pressure;BME280_temperature;BME280_humidity;BME280_pressure;Samples;Min_cycle;Max_cycle;Signal;HPM_P1;HPM_P2
2021/11/11 00:02:22;;;;;;;5.88;2.53;;;;;;;8.88;75.99;93490.94;5001262;28;20132;-91
2021/11/11 00:08:24;;;;;;;;;;;;;;;;;;;;;
2021/11/11 00:14:22;;;;;;;6.55;2.92;;;;;;;8.83;76.14;93480.47;4939976;29;20049;-91
2021/11/11 00:17:40;;;;;;;9.68;2.83;;;;;;;8.83;76.43;93490.91;4948306;28;20126;-91
2021/11/11 00:20:19;;;;;;;6.03;2.85;;;;;;;8.79;76.17;93487.22;5014773;28;20033;-91
2021/11/11 00:23:03;;;;;;;;;;;;;;;;;;;;;
2021/11/11 00:25:55;;;;;;;5.28;2.78;;;;;;;8.82;76.08;93484.09;5034384;28;20037;-91
2021/11/11 00:28:38;;;;;;;6.53;3.00;;;;;;;8.85;76.08;93486.22;5003116;28;20042;-90
2021/11/11 00:31:45;;;;;;;5.75;2.90;;;;;;;8.89;75.73;93484.69;4982484;28;20040;-91
2021/11/11 00:34:36;;;;;;;7.90;2.92;;;;;;;8.88;76.35;93488.31;5011530;28;20034;-92
2021/11/11 00:41:38;;;;;;;;;;;;;;;;;;;;;
2021/11/11 00:45:00;;;;;;;5.88;2.63;;;;;;;9.02;75.70;93516.63;5030444;28;20045;-91
2021/11/11 00:47:52;;;;;;;;;;;;;;;;;;;;;
2021/11/11 00:50:53;;;;;;;;;;;;;;;;;;;;;
2021/11/11 00:53:58;;;;;;;6.95;2.92;;;;;;;9.01;75.73;93512.44;5045651;28;20039;-90
2021/11/11 00:56:52;;;;;;;4.88;2.53;;;;;;;9.02;75.31;93506.19;5006882;28;20112;-90
2021/11/11 00:59:52;;;;;;;6.20;3.05;;;;;;;9.02;75.21;93506.19;5011448;28;20490;-91
2021/11/11 01:03:24;;;;;;;;;;;;;;;;;;;;;
2021/11/11 01:06:36;;;;;;;;;;;;;;;;;;;;;
2021/11/11 01:09:41;;;;;;;4.00;2.15;;;;;;;9.09;75.87;93507.53;5038360;28;20029;-91
2021/11/11 01:12:35;;;;;;;;;;;;;;;;;;;;;
2021/11/11 01:15:55;;;;;;;;;;;;;;;;;;;;;
2021/11/11 01:18:53;;;;;;;;;;;;;;;;;;;;;
2021/11/11 01:21:57;;;;;;;5.63;2.88;;;;;;;9.09;75.25;93494.47;5031543;28;20041;-90
2021/11/11 01:24:36;;;;;;;8.13;3.10;;;;;;;9.10;75.37;93495.28;5009399;28;20087;-91
2021/11/11 01:27:46;;;;;;;;;;;;;;;;;;;;;
2021/11/11 01:30:50;;;;;;;5.90;3.10;;;;;;;9.10;76.22;93497.88;5014039;28;20045;-91
2021/11/11 01:40:50;;;;;;;6.22;3.30;;;;;;;9.04;76.73;93494.44;5013995;28;20128;-92
2021/11/11 01:44:28;;;;;;;4.68;2.50;;;;;;;9.02;76.90;93495.72;5006483;28;20046;-90
2021/11/11 01:50:38;;;;;;;;;;;;;;;;;;;;;
2021/11/11 01:53:31;;;;;;;;;;;;;;;;;;;;;
2021/11/11 01:56:27;;;;;;;;;;;;;;;;;;;;;
2021/11/11 01:59:41;;;;;;;7.75;2.55;;;;;;;9.00;77.15;93471.69;5012561;28;20321;-90
2021/11/11 02:02:45;;;;;;;6.10;3.33;;;;;;;9.06;76.84;93496.81;5044849;28;20383;-90
2021/11/11 02:05:59;;;;;;;;;;;;;;;;;;;;;
2021/11/11 02:09:10;;;;;;;;;;;;;;;;;;;;;
2021/11/11 02:12:21;;;;;;;;;;;;;;;;;;;;;
2021/11/11 02:21:37;;;;;;;6.30;3.00;;;;;;;9.16;75.77;93470.72;5022858;28;20045;-91
2021/11/11 02:24:28;;;;;;;5.53;2.80;;;;;;;9.08;76.20;93464.16;5005401;28;20052;-91
2021/11/11 02:27:19;;;;;;;6.95;3.30;;;;;;;9.07;76.80;93461.81;5018674;28;20390;-91
2021/11/11 02:33:28;;;;;;;;;;;;;;;;;;;;;
2021/11/11 02:36:04;;;;;;;10.10;2.70;;;;;;;9.06;77.51;93455.78;5005306;28;20084;-90
2021/11/11 02:42:04;;;;;;;5.60;3.13;;;;;;;9.08;77.23;93451.09;4985555;28;20041;-91
2021/11/11 02:48:46;;;;;;;;;;;;;;;;;;;;;
2021/11/11 02:51:27;;;;;;;5.85;3.25;;;;;;;9.05;77.04;93411.63;5033212;28;20500;-91
2021/11/11 02:54:29;;;;;;;6.53;3.15;;;;;;;9.06;77.50;93415.84;5031967;28;20054;-91
2021/11/11 02:57:51;;;;;;;6.88;3.35;;;;;;;9.02;77.20;93412.16;4980845;28;20037;-91
2021/11/11 03:00:33;;;;;;;5.30;2.88;;;;;;;9.06;77.38;93415.84;5035783;28;20040;-91
2021/11/11 03:03:29;;;;;;;6.38;3.10;;;;;;;9.03;77.01;93406.69;5031713;28;20048;-92
2021/11/11 03:06:16;;;;;;;;;;;;;;;;;;;;;
2021/11/11 03:09:20;;;;;;;6.00;3.13;;;;;;;9.06;76.94;93402.78;5033930;28;20048;-90
2021/11/11 03:12:26;;;;;;;;;;;;;;;;;;;;;
2021/11/11 03:15:22;;;;;;;;;;;;;;;;;;;;;
2021/11/11 03:18:36;;;;;;;5.47;2.80;;;;;;;8.99;76.86;93382.13;5019294;28;20048;-91
2021/11/11 03:25:16;;;;;;;;;;;;;;;;;;;;;
2021/11/11 03:28:03;;;;;;;;;;;;;;;;;;;;;
2021/11/11 03:30:57;;;;;;;;;;;;;;;;;;;;;
2021/11/11 03:33:57;;;;;;;;;;;;;;;;;;;;;
2021/11/11 03:40:02;;;;;;;8.10;2.80;;;;;;;9.54;72.22;93390.41;5027578;28;20369;-90
2021/11/11 03:43:00;;;;;;;5.22;2.88;;;;;;;9.53;72.15;93383.63;5019885;28;20071;-91
2021/11/11 03:46:01;;;;;;;;;;;;;;;;;;;;;
2021/11/11 03:52:54;;;;;;;;;;;;;;;;;;;;;
2021/11/11 03:55:27;;;;;;;7.90;2.92;;;;;;;9.40;73.38;93397.97;5033696;28;20498;-90
2021/11/11 03:58:49;;;;;;;;;;;;;;;;;;;;;
2021/11/11 04:01:43;;;;;;;6.15;3.08;;;;;;;9.32;74.06;93391.41;5007326;28;20133;-89
2021/11/11 04:04:55;;;;;;;;;;;;;;;;;;;;;
2021/11/11 04:07:47;;;;;;;10.23;2.70;;;;;;;9.32;75.26;93395.81;5048143;28;20080;-91
2021/11/11 04:10:33;;;;;;;;;;;;;;;;;;;;;
2021/11/11 04:13:28;;;;;;;;;;;;;;;;;;;;;
2021/11/11 04:16:27;;;;;;;5.07;2.80;;;;;;;9.28;74.64;93395.56;5040556;28;20117;-91
2021/11/11 04:19:13;;;;;;;;;;;;;;;;;;;;;
2021/11/11 04:22:07;;;;;;;;;;;;;;;;;;;;;
2021/11/11 04:28:22;;;;;;;5.32;2.80;;;;;;;9.32;76.09;93422.75;5013963;28;20050;-90
2021/11/11 04:31:29;;;;;;;6.32;2.83;;;;;;;9.28;75.83;93421.69;5043815;28;20371;-92
2021/11/11 04:34:25;;;;;;;;;;;;;;;;;;;;;
2021/11/11 04:37:36;;;;;;;;;;;;;;;;;;;;;
2021/11/11 04:44:10;;;;;;;8.18;3.00;;;;;;;9.12;76.31;93427.91;5027834;28;20044;-90
2021/11/11 04:51:04;;;;;;;;;;;;;;;;;;;;;
2021/11/11 05:01:08;;;;;;;;;;;;;;;;;;;;;
2021/11/11 05:07:07;;;;;;;9.25;3.58;;;;;;;9.08;77.28;93432.03;4993692;28;20434;-90
2021/11/11 05:10:17;;;;;;;;;;;;;;;;;;;;;
2021/11/11 05:16:52;;;;;;;;;;;;;;;;;;;;;
2021/11/11 05:19:38;;;;;;;;;;;;;;;;;;;;;
2021/11/11 05:22:35;;;;;;;;;;;;;;;;;;;;;
2021/11/11 05:25:55;;;;;;;;;;;;;;;;;;;;;
2021/11/11 05:28:54;;;;;;;6.97;3.38;;;;;;;8.78;81.41;93402.13;5034038;28;20064;-91
2021/11/11 05:32:01;;;;;;;7.82;3.33;;;;;;;8.68;83.39;93386.38;5017121;28;20104;-92
2021/11/11 05:34:43;;;;;;;10.20;3.33;;;;;;;8.44;85.08;93391.16;5001500;28;20037;-90
2021/11/11 05:37:36;;;;;;;;;;;;;;;;;;;;;
2021/11/11 05:44:12;;;;;;;6.00;3.60;;;;;;;8.15;86.27;93391.47;5039094;28;20421;-91
2021/11/11 05:46:53;;;;;;;8.30;3.55;;;;;;;8.20;86.59;93390.72;5009565;28;20218;-90
2021/11/11 05:50:11;;;;;;;9.13;3.80;;;;;;;8.14;87.65;93414.13;5029022;28;20035;-91
2021/11/11 05:52:56;;;;;;;9.98;3.80;;;;;;;8.05;86.88;93402.56;5021155;28;20038;-90
2021/11/11 05:56:13;;;;;;;;;;;;;;;;;;;;;
2021/11/11 05:58:54;;;;;;;7.97;3.55;;;;;;;8.03;86.30;93399.44;5021900;28;20045;-91
2021/11/11 06:01:36;;;;;;;8.50;4.35;;;;;;;7.90;86.57;93377.16;4985117;28;20134;-89
2021/11/11 06:04:44;;;;;;;;;;;;;;;;;;;;;
2021/11/11 06:08:28;;;;;;;;;;;;;;;;;;;;;
2021/11/11 06:11:08;;;;;;;;;;;;;;;;;;;;;
2021/11/11 06:14:07;;;;;;;7.07;3.35;;;;;;;7.85;87.92;93369.28;5018462;28;20038;-91
2021/11/11 06:17:13;;;;;;;6.57;3.33;;;;;;;7.91;88.48;93375.34;5015018;28;20064;-91
2021/11/11 06:20:12;;;;;;;;;;;;;;;;;;;;;
2021/11/11 06:23:06;;;;;;;10.57;3.65;;;;;;;7.78;88.91;93397.38;5037538;28;20087;-91
2021/11/11 06:25:59;;;;;;;8.38;4.10;;;;;;;7.70;88.38;93387.38;4996436;28;20099;-91
2021/11/11 06:28:50;;;;;;;9.30;3.58;;;;;;;7.74;87.60;93392.91;5001092;28;20037;-92
2021/11/11 06:31:38;;;;;;;14.10;3.95;;;;;;;7.73;86.76;93379.09;5018171;28;20133;-92
2021/11/11 06:35:03;;;;;;;;;;;;;;;;;;;;;
2021/11/11 06:41:17;;;;;;;11.05;3.63;;;;;;;7.78;86.37;93394.75;5015178;28;20056;-91
2021/11/11 06:44:01;;;;;;;12.23;4.07;;;;;;;7.82;86.06;93390.63;5009633;28;20041;-90
2021/11/11 06:46:49;;;;;;;8.18;3.70;;;;;;;7.87;85.70;93397.72;5013850;28;20069;-91
2021/11/11 06:49:45;;;;;;;;;;;;;;;;;;;;;
2021/11/11 06:52:46;;;;;;;;;;;;;;;;;;;;;
2021/11/11 06:55:46;;;;;;;9.30;3.92;;;;;;;7.95;86.29;93402.50;5012210;28;20036;-92
2021/11/11 07:01:56;;;;;;;8.57;4.38;;;;;;;7.98;85.76;93420.25;4997903;28;20049;-91
2021/11/11 07:05:28;;;;;;;8.93;4.43;;;;;;;8.12;86.69;93424.00;5021952;28;20045;-92
2021/11/11 07:08:24;;;;;;;11.48;4.80;;;;;;;8.13;86.79;93422.22;5047851;28;20486;-92
2021/11/11 07:11:18;;;;;;;7.65;3.80;;;;;;;8.13;86.48;93428.22;5053845;28;20039;-92
2021/11/11 07:14:32;;;;;;;7.82;3.90;;;;;;;8.14;86.14;93418.56;5000440;28;20040;-91
2021/11/11 07:17:37;;;;;;;;;;;;;;;;;;;;;
2021/11/11 07:20:36;;;;;;;5.88;3.25;;;;;;;8.31;86.07;93410.63;5020707;28;20063;-92
2021/11/11 07:23:26;;;;;;;7.40;3.80;;;;;;;8.47;86.20;93417.56;5017150;28;20774;-93
2021/11/11 07:26:58;;;;;;;;;;;;;;;;;;;;;
2021/11/11 07:29:44;;;;;;;6.68;3.58;;;;;;;8.85;85.99;93410.50;5013652;28;20132;-93
2021/11/11 07:32:22;;;;;;;;;;;;;;;;;;;;;
2021/11/11 07:35:36;;;;;;;7.25;4.05;;;;;;;9.17;85.17;93399.19;5020196;28;20045;-90
2021/11/11 07:38:31;;;;;;;8.48;3.72;;;;;;;9.39;84.63;93414.69;5000280;28;20032;-91
2021/11/11 07:41:17;;;;;;;7.50;3.72;;;;;;;9.52;83.47;93413.41;5024050;28;20046;-91
2021/11/11 07:45:00;;;;;;;8.23;3.97;;;;;;;9.72;82.95;93421.31;5018109;28;20458;-92
2021/11/11 07:48:05;;;;;;;8.32;3.85;;;;;;;10.33;81.21;93412.81;5000608;28;20104;-91
2021/11/11 07:51:04;;;;;;;10.00;3.97;;;;;;;10.30;80.13;93420.41;5036326;28;20198;-94
2021/11/11 07:54:06;;;;;;;7.57;3.88;;;;;;;10.28;80.08;93414.63;5007291;28;20060;-90
2021/11/11 08:01:07;;;;;;;7.60;3.58;;;;;;;10.10;79.03;93406.22;5027071;28;20429;-91
2021/11/11 08:04:22;;;;;;;;;;;;;;;;;;;;;
2021/11/11 08:07:06;;;;;;;8.40;3.30;;;;;;;10.28;78.04;93422.47;5003463;28;20105;-92
2021/11/11 08:13:13;;;;;;;7.70;3.40;;;;;;;12.37;71.23;93396.66;4997005;28;20499;-94
2021/11/11 08:18:48;;;;;;;7.97;3.33;;;;;;;12.64;68.32;93377.78;4987479;28;20141;-93
2021/11/11 08:21:49;;;;;;;;;;;;;;;;;;;;;
2021/11/11 08:24:42;;;;;;;11.98;4.22;;;;;;;12.86;69.16;93382.56;5012856;28;20049;-91
2021/11/11 08:27:33;;;;;;;7.40;3.53;;;;;;;14.35;64.77;93384.94;4997399;28;20046;-92
2021/11/11 08:30:39;;;;;;;;;;;;;;;;;;;;;
2021/11/11 08:33:25;;;;;;;8.52;3.08;;;;;;;14.52;61.73;93383.63;5013668;28;20052;-91
2021/11/11 08:36:22;;;;;;;7.15;2.90;;;;;;;14.13;61.51;93376.84;4982046;28;20050;-90
2021/11/11 08:39:23;;;;;;;7.97;4.07;;;;;;;13.04;66.54;93391.59;5003298;28;20037;-91
2021/11/11 08:42:25;;;;;;;;;;;;;;;;;;;;;
2021/11/11 08:45:08;;;;;;;7.82;4.38;;;;;;;13.82;65.02;93377.25;4993002;28;20141;-92
2021/11/11 08:48:02;;;;;;;;;;;;;;;;;;;;;
2021/11/11 08:51:08;;;;;;;9.35;3.88;;;;;;;14.48;62.68;93372.13;5005427;28;20035;-91
2021/11/11 08:54:07;;;;;;;8.63;3.60;;;;;;;14.82;61.90;93368.41;5002312;28;20511;-92
2021/11/11 08:57:18;;;;;;;7.75;3.47;;;;;;;15.12;59.87;93374.97;4986949;28;20042;-92
2021/11/11 09:00:01;;;;;;;;;;;;;;;;;;;;;
2021/11/11 09:03:01;;;;;;;;;;;;;;;;;;;;;
2021/11/11 09:05:42;;;;;;;;;;;;;;;;;;;;;
2021/11/11 09:08:44;;;;;;;;;;;;;;;;;;;;;
2021/11/11 09:12:04;;;;;;;7.05;3.80;;;;;;;16.34;55.80;93361.09;5014280;28;20056;-90
2021/11/11 09:15:10;;;;;;;;;;;;;;;;;;;;;
2021/11/11 09:21:51;;;;;;;;;;;;;;;;;;;;;
2021/11/11 09:24:35;;;;;;;7.15;3.30;;;;;;;18.50;50.15;93340.13;5001130;28;20068;-91
2021/11/11 09:28:04;;;;;;;;;;;;;;;;;;;;;
2021/11/11 09:30:49;;;;;;;;;;;;;;;;;;;;;
2021/11/11 09:33:40;;;;;;;;;;;;;;;;;;;;;
2021/11/11 09:36:24;;;;;;;13.63;5.43;;;;;;;13.41;64.49;93383.03;5000747;28;20048;-92
2021/11/11 09:39:26;;;;;;;10.70;5.65;;;;;;;13.03;66.60;93361.09;4995885;28;20038;-91
2021/11/11 09:42:09;;;;;;;16.25;5.70;;;;;;;13.30;65.37;93361.34;4979533;28;20034;-91
2021/11/11 09:44:54;;;;;;;10.88;4.88;;;;;;;13.53;65.27;93365.03;4997878;28;20489;-91
2021/11/11 09:51:19;;;;;;;;;;;;;;;;;;;;;
2021/11/11 10:00:38;;;;;;;8.00;4.20;;;;;;;14.73;61.04;93345.34;5032740;28;20040;-91
2021/11/11 10:03:35;;;;;;;8.27;4.10;;;;;;;14.92;60.72;93349.75;5010424;28;20096;-92
2021/11/11 10:06:46;;;;;;;7.90;3.95;;;;;;;15.25;60.01;93347.06;4998652;28;20038;-91
2021/11/11 10:09:49;;;;;;;;;;;;;;;;;;;;;
2021/11/11 10:12:41;;;;;;;11.05;4.13;;;;;;;16.14;56.95;93337.81;5016391;28;20030;-92
2021/11/11 10:15:58;;;;;;;7.68;3.45;;;;;;;16.17;56.76;93329.31;4985613;28;20040;-91
2021/11/11 10:18:54;;;;;;;7.60;3.95;;;;;;;16.82;55.91;93342.00;4992935;28;20060;-91
2021/11/11 10:24:20;;;;;;;9.05;4.50;;;;;;;18.03;50.88;93314.28;5015211;28;20123;-92
2021/11/11 11:17:43;;;;;;;;;;;;;;;;;;;;;
2021/11/11 11:40:39;;;;;;;;;;;;;;;;;;;;;
2021/11/11 11:43:51;;;;;;;;;;;;;;;;;;;;;
2021/11/11 11:47:50;;;;;;;;;;;;;;;;;;;;;
2021/11/11 12:05:41;;;;;;;;;;;;;;;;;;;;;
2021/11/11 12:09:00;;;;;;;;;;;;;;;;;;;;;
2021/11/11 12:38:42;;;;;;;27.98;11.50;;;;;;;14.62;64.54;93222.75;5034770;28;20072;-94
2021/11/11 12:41:33;;;;;;;10.52;4.25;;;;;;;13.70;66.76;93219.81;5003706;28;20455;-92
2021/11/11 12:48:00;;;;;;;;;;;;;;;;;;;;;
2021/11/11 12:51:16;;;;;;;10.52;5.00;;;;;;;14.20;65.71;93223.75;4994846;28;20069;-93
2021/11/11 12:54:11;;;;;;;11.50;4.60;;;;;;;14.42;64.59;93216.00;4982130;28;20061;-93
2021/11/11 12:57:11;;;;;;;13.20;7.22;;;;;;;15.25;62.72;93220.47;4986775;28;20376;-92
2021/11/11 13:00:04;;;;;;;11.45;6.03;;;;;;;15.47;61.61;93217.88;5002029;28;20079;-92
2021/11/11 13:03:20;;;;;;;17.80;6.15;;;;;;;15.59;61.73;93197.00;5000717;28;20044;-92
2021/11/11 13:06:06;;;;;;;11.15;5.72;;;;;;;16.07;60.49;93192.19;5000134;28;20129;-93
2021/11/11 13:09:14;;;;;;;9.40;4.80;;;;;;;16.76;58.49;93189.06;5001275;28;20042;-93
2021/11/11 13:12:28;;;;;;;7.53;3.88;;;;;;;17.46;55.35;93187.31;4999146;28;20049;-93
2021/11/11 13:15:13;;;;;;;11.10;4.10;;;;;;;17.99;54.01;93180.13;4995502;28;20069;-93
2021/11/11 13:18:00;;;;;;;7.45;4.07;;;;;;;18.29;52.40;93179.13;4990293;28;20026;-93
2021/11/11 13:21:31;;;;;;;;;;;;;;;;;;;;;
2021/11/11 13:24:55;;;;;;;9.68;4.75;;;;;;;17.09;56.18;93149.81;5015455;28;20491;-93
2021/11/11 16:21:21;;;;;;;8.13;4.43;;;;;;;11.70;75.04;93105.13;5070821;28;20265;-75
2021/11/11 16:26:21;;;;;;;10.02;4.72;;;;;;;11.51;75.53;93105.06;5055758;28;20119;-76
2021/11/11 16:28:50;;;;;;;8.43;4.05;;;;;;;11.40;75.73;93107.75;5036642;28;20025;-76
2021/11/11 16:31:21;;;;;;;8.07;3.97;;;;;;;11.36;75.97;93101.50;5053330;28;20409;-76
2021/11/11 16:33:49;;;;;;;7.10;4.00;;;;;;;11.28;76.55;93099.50;5052738;28;20474;-76
2021/11/11 16:36:16;;;;;;;8.25;4.00;;;;;;;11.19;76.75;93095.88;5070602;28;20020;-75
2021/11/11 16:38:42;;;;;;;10.35;4.22;;;;;;;11.12;76.98;93095.41;5070551;28;20487;-75
2021/11/11 16:41:08;;;;;;;7.50;3.92;;;;;;;11.02;77.41;93102.28;5070571;28;20062;-75
2021/11/11 16:43:35;;;;;;;8.57;4.85;;;;;;;10.98;77.92;93101.25;5069484;28;20493;-75
2021/11/11 16:46:02;;;;;;;15.60;5.05;;;;;;;10.97;77.89;93110.19;5052601;28;20031;-75
2021/11/11 16:48:29;;;;;;;11.60;5.00;;;;;;;10.90;78.53;93109.72;5070587;28;20067;-75
2021/11/11 16:50:55;;;;;;;14.25;5.38;;;;;;;10.87;78.85;93119.94;5070365;28;20544;-74
2021/11/11 16:53:21;;;;;;;11.95;5.75;;;;;;;10.83;79.21;93120.50;5036265;28;20066;-75
2021/11/11 16:55:47;;;;;;;11.00;5.63;;;;;;;10.75;79.38;93123.69;5052544;28;20034;-75
2021/11/11 16:58:13;;;;;;;10.80;5.63;;;;;;;10.71;79.35;93122.66;5052338;28;20063;-75
2021/11/11 17:00:39;;;;;;;14.38;6.55;;;;;;;10.70;78.85;93131.56;5070207;28;20036;-75
2021/11/11 17:03:05;;;;;;;16.45;6.82;;;;;;;10.65;79.08;93133.44;5070475;28;20122;-77
2021/11/11 17:05:31;;;;;;;10.48;6.38;;;;;;;10.58;78.98;93128.47;5043341;28;20071;-78
2021/11/11 17:07:57;;;;;;;13.23;5.90;;;;;;;10.53;79.12;93128.50;5035974;28;20530;-79
2021/11/11 17:10:24;;;;;;;12.48;6.22;;;;;;;10.42;79.18;93119.91;5058507;28;20029;-79
2021/11/11 17:12:51;;;;;;;17.85;5.72;;;;;;;10.35;80.11;93125.44;5018093;28;20033;-79
2021/11/11 17:15:20;;;;;;;9.50;5.45;;;;;;;10.32;80.19;93136.47;5052594;28;20071;-78
2021/11/11 17:17:47;;;;;;;11.68;5.60;;;;;;;10.29;80.22;93133.59;5052204;28;20059;-79
2021/11/11 17:20:19;;;;;;;12.48;5.95;;;;;;;10.32;80.63;93133.06;5056103;28;20494;-80
2021/11/11 17:22:51;;;;;;;10.00;5.15;;;;;;;10.18;80.71;93135.44;5025627;28;20064;-80
2021/11/11 17:30:38;;;;;;;9.32;5.18;;;;;;;9.98;81.06;93123.22;5056875;28;20039;-78
2021/11/11 17:33:05;;;;;;;14.88;6.30;;;;;;;9.94;81.27;93143.09;5053112;28;20338;-80
2021/11/11 17:35:31;;;;;;;15.32;7.18;;;;;;;9.89;82.57;93148.34;5050063;28;20039;-79
2021/11/11 17:37:57;;;;;;;14.10;5.97;;;;;;;9.90;84.33;93147.28;5054351;28;20056;-79
2021/11/11 17:40:23;;;;;;;11.40;6.43;;;;;;;9.87;83.53;93146.00;5071125;28;20055;-80
2021/11/11 17:42:51;;;;;;;11.93;6.25;;;;;;;9.82;82.61;93147.81;5056797;28;20079;-81
2021/11/11 17:45:26;;;;;;;14.18;6.50;;;;;;;9.80;82.46;93141.03;5073589;28;20021;-81
2021/11/11 17:47:52;;;;;;;13.93;6.40;;;;;;;9.75;82.46;93145.50;5067332;28;20051;-80
2021/11/11 17:50:21;;;;;;;18.98;6.28;;;;;;;9.70;82.73;93150.72;5037569;28;20033;-80
2021/11/11 17:52:51;;;;;;;15.18;6.07;;;;;;;9.65;82.94;93148.91;5056467;28;20059;-78
2021/11/11 17:55:27;;;;;;;14.68;6.85;;;;;;;9.61;82.90;93153.06;5056045;28;20070;-79
2021/11/11 17:57:57;;;;;;;12.38;5.78;;;;;;;9.61;83.22;93147.06;5058395;28;20054;-77
2021/11/11 18:00:23;;;;;;;11.90;5.43;;;;;;;9.61;83.15;93147.06;5044597;28;20036;-79
2021/11/11 18:02:50;;;;;;;10.38;5.50;;;;;;;9.62;83.13;93146.03;5034156;28;20486;-79
2021/11/11 18:05:17;;;;;;;9.90;5.88;;;;;;;9.65;83.49;93137.66;5036027;28;20033;-80
2021/11/11 18:07:51;;;;;;;10.55;5.72;;;;;;;9.62;83.55;93138.19;5051227;28;20414;-81
2021/11/11 18:10:17;;;;;;;10.25;5.78;;;;;;;9.66;83.50;93142.63;5020205;28;20156;-78
2021/11/11 18:12:45;;;;;;;13.02;5.20;;;;;;;9.65;83.70;93137.66;5016161;28;20139;-78
2021/11/11 18:15:15;;;;;;;11.68;5.18;;;;;;;9.65;83.61;93129.81;5030389;28;20029;-78
2021/11/11 18:17:50;;;;;;;11.25;5.55;;;;;;;9.64;83.43;93120.44;5051826;28;20045;-78
2021/11/11 18:20:17;;;;;;;11.73;5.50;;;;;;;9.62;82.98;93112.84;5052965;28;20044;-81
2021/11/11 18:23:02;;;;;;;15.57;8.05;;;;;;;9.60;83.04;93109.69;5055881;28;20032;-80
2021/11/11 18:25:28;;;;;;;13.82;7.20;;;;;;;9.61;82.89;93106.03;5050674;28;20055;-79
2021/11/11 18:27:55;;;;;;;14.23;6.22;;;;;;;9.63;83.03;93093.47;5037721;28;20040;-78
2021/11/11 18:30:41;;;;;;;11.65;5.40;;;;;;;9.69;82.82;93091.66;5052744;28;20037;-78
2021/11/11 18:33:10;;;;;;;7.80;4.55;;;;;;;9.67;82.38;93086.69;5053870;28;20116;-79
2021/11/11 18:35:50;;;;;;;9.15;4.63;;;;;;;9.66;81.60;93082.50;5045905;28;20060;-77
2021/11/11 18:38:18;;;;;;;8.88;4.38;;;;;;;9.63;82.41;93080.41;5052301;28;20045;-77
2021/11/11 18:40:46;;;;;;;9.68;4.80;;;;;;;9.65;82.55;93086.16;5053607;28;20024;-75
2021/11/11 18:43:13;;;;;;;8.57;4.88;;;;;;;9.63;82.04;93083.03;5052200;28;20039;-77
2021/11/11 18:45:41;;;;;;;10.98;5.03;;;;;;;9.61;81.99;93085.13;5045558;28;20122;-78
2021/11/11 18:50:42;;;;;;;12.32;5.15;;;;;;;9.54;82.12;93087.22;5037272;28;20037;-78
2021/11/11 18:53:08;;;;;;;10.55;5.35;;;;;;;9.50;82.04;93083.56;5039108;28;20045;-79
2021/11/11 18:55:35;;;;;;;12.50;5.72;;;;;;;9.46;82.21;93077.34;5057669;28;20101;-77
2021/11/11 18:58:01;;;;;;;19.02;8.02;;;;;;;9.40;82.33;93078.38;5066461;28;20494;-78
2021/11/11 19:00:28;;;;;;;16.75;7.53;;;;;;;9.38;82.56;93076.78;5054786;28;20127;-78
2021/11/11 19:02:54;;;;;;;12.13;6.22;;;;;;;9.38;82.69;93076.03;5076333;28;20027;-78
2021/11/11 19:05:26;;;;;;;15.02;5.80;;;;;;;9.37;82.82;93072.63;5058059;28;20025;-78
2021/11/11 19:08:15;;;;;;;13.32;5.88;;;;;;;9.32;82.94;93077.06;5075013;28;20079;-77
2021/11/11 19:10:45;;;;;;;11.05;5.50;;;;;;;9.28;83.04;93076.81;5076844;28;20040;-78
2021/11/11 19:13:22;;;;;;;17.65;5.93;;;;;;;9.23;83.34;93066.38;5074670;28;20096;-78
2021/11/11 19:15:48;;;;;;;10.98;4.93;;;;;;;9.20;83.67;93084.41;5075741;28;20064;-77
2021/11/11 19:18:26;;;;;;;14.10;5.43;;;;;;;9.20;84.10;93079.97;5076579;28;20052;-77
2021/11/11 19:20:52;;;;;;;12.10;5.07;;;;;;;9.12;83.93;93070.84;5057401;28;20047;-77
2021/11/11 19:23:17;;;;;;;15.10;5.70;;;;;;;9.11;84.05;93076.31;5057376;28;20024;-77
2021/11/11 19:25:43;;;;;;;11.15;5.40;;;;;;;9.10;83.96;93069.53;5071672;28;20123;-78
2021/11/11 19:28:10;;;;;;;8.68;4.88;;;;;;;9.10;84.08;93066.91;5068877;28;20108;-77
2021/11/11 19:30:37;;;;;;;8.30;4.43;;;;;;;9.09;84.61;93079.16;5072772;28;20032;-78
2021/11/11 19:33:04;;;;;;;9.07;4.72;;;;;;;9.10;84.46;93074.75;5075175;28;20466;-78
2021/11/11 19:35:41;;;;;;;12.13;4.95;;;;;;;9.09;84.55;93075.78;5072208;28;20033;-80
2021/11/11 19:38:15;;;;;;;8.63;4.53;;;;;;;9.04;84.32;93070.56;5074940;28;20116;-78
2021/11/11 19:43:35;;;;;;;9.40;5.30;;;;;;;8.91;85.18;93070.03;5066257;28;20176;-77
2021/11/11 19:59:15;;;;;;;11.27;6.20;;;;;;;8.77;85.82;93083.88;5038221;28;20048;-77
2021/11/11 20:04:48;;;;;;;15.52;7.40;;;;;;;8.76;84.99;93080.50;5071624;28;20134;-76
2021/11/11 20:07:24;;;;;;;16.55;6.53;;;;;;;8.72;85.31;93077.59;5053432;28;20036;-77
2021/11/11 20:20:29;;;;;;;9.45;4.57;;;;;;;8.59;85.63;93077.31;5071997;28;20040;-77
2021/11/11 20:36:41;;;;;;;11.07;5.20;;;;;;;8.70;86.69;93078.91;5071125;28;20146;-77
2021/11/11 20:50:11;;;;;;;14.70;5.88;;;;;;;8.59;87.73;93091.16;5066913;28;20028;-78
2021/11/11 21:00:49;;;;;;;11.75;6.10;;;;;;;8.51;86.93;93084.63;5033087;28;20072;-77
2021/11/11 21:08:52;;;;;;;10.07;5.38;;;;;;;8.48;86.26;93090.34;5071066;28;20029;-76
2021/11/11 21:18:39;;;;;;;9.57;4.55;;;;;;;8.42;85.19;93091.41;5041548;28;20099;-79
2021/11/11 21:21:06;;;;;;;9.23;4.90;;;;;;;8.42;85.06;93080.97;5052629;28;20041;-79
2021/11/11 21:23:32;;;;;;;10.10;4.65;;;;;;;8.40;85.39;93080.44;5052514;28;20090;-79
2021/11/11 21:26:01;;;;;;;14.80;6.35;;;;;;;8.36;85.66;93084.56;5073575;28;20040;-80
2021/11/11 21:28:29;;;;;;;8.32;4.63;;;;;;;8.34;85.44;93076.19;5074067;28;20051;-79
2021/11/11 21:30:55;;;;;;;9.43;4.63;;;;;;;8.33;84.76;93082.44;5056863;28;20472;-79
2021/11/11 21:33:27;;;;;;;7.82;4.05;;;;;;;8.31;84.86;93082.72;5072922;28;20036;-78
2021/11/11 21:40:54;;;;;;;11.32;5.00;;;;;;;8.32;85.97;93075.66;5073389;28;20086;-78
2021/11/11 21:43:23;;;;;;;9.48;4.88;;;;;;;8.33;85.80;93077.22;5075173;28;20059;-79
2021/11/11 21:45:49;;;;;;;10.05;5.20;;;;;;;8.33;85.91;93077.22;5074201;28;20028;-79
2021/11/11 21:48:15;;;;;;;9.40;5.32;;;;;;;8.32;85.76;93070.47;5074413;28;20045;-79
2021/11/11 21:50:43;;;;;;;9.52;4.50;;;;;;;8.33;85.79;93066.78;5074304;28;20033;-79
2021/11/11 21:53:12;;;;;;;8.30;4.25;;;;;;;8.33;85.94;93058.97;5073290;28;20052;-79
2021/11/11 22:21:52;;;;;;;;;;;;;;;;;;;;;
2021/11/11 22:24:59;;;;;;;10.70;3.65;;;;;;;8.37;84.71;93036.53;5067975;28;20040;-93
2021/11/11 22:37:00;;;;;;;;;;;;;;;;;;;;;
2021/11/11 22:40:32;;;;;;;;;;;;;;;;;;;;;
2021/11/11 22:43:55;;;;;;;8.82;4.30;;;;;;;8.31;82.95;93022.72;5062162;28;20032;-93
2021/11/11 22:46:47;;;;;;;;;;;;;;;;;;;;;
2021/11/11 23:01:11;;;;;;;;;;;;;;;;;;;;;
2021/11/11 23:18:57;;;;;;;;;;;;;;;;;;;;;
2021/11/11 23:22:38;;;;;;;;;;;;;;;;;;;;;
2021/11/11 23:36:19;;;;;;;12.05;4.25;;;;;;;8.18;82.43;92980.72;5038096;28;20055;-94
2021/11/11 23:46:31;;;;;;;6.65;3.40;;;;;;;8.18;81.83;92970.28;4913532;29;20043;-93
2021/11/11 23:50:18;;;;;;;8.27;4.00;;;;;;;8.16;81.79;92967.16;4934837;28;20059;-94
